Katama — WBP4751 — position and weather

sailwx.info

Track history (hours):
 
Tides and Currents Weather Stations Pressure Air Temp Water Temp Dewpoint Dewpoint Depression Visibility Wind Speed Wind Dir Waves Ship Positions

Katama

More information available from US FCC via Universal Licensing System and Coast Guard Vessel Documentation Center.

Last reported at 2014-Sep-18 14:32 UTC. Time now 2014-Sep-19 07:49 UTC.
Position N 41°31' W 070°40'.

Length 66 m; draft 3 m.

Type: Passenger vessel. MMSI: 367327330.

Date/timePositionNaut miles runAvg speedWind from/ knotsBaromVisibWave heightAir tempDewpointWater temp
2014-Sep-18 14:32N 41°31' W 070°40'5 5.0
2014-Sep-18 13:31N 41°27' W 070°36'5 5.2
2014-Sep-18 12:32N 41°31' W 070°40'4 4.4
2014-Sep-18 11:33N 41°29' W 070°35'1 1.2
2014-Sep-18 10:30N 41°30' W 070°37'3 3.2
2014-Sep-18 09:33N 41°31' W 070°40'0 0.0
2014-Sep-18 07:17N 41°31' W 070°40'0 0.0
2014-Sep-18 06:33N 41°31' W 070°40'0 0.0
2014-Sep-18 05:33N 41°31' W 070°40'0 0.0
2014-Sep-18 04:33N 41°31' W 070°40'0 0.0
2014-Sep-18 03:33N 41°31' W 070°40'5 0.4
2014-Sep-17 15:31N 41°29' W 070°35'5 4.3
2014-Sep-17 14:23N 41°31' W 070°40'0 0.2
2014-Sep-17 12:33N 41°31' W 070°40'5 3.9
2014-Sep-17 11:23N 41°28' W 070°35'3 3.3
2014-Sep-17 10:32N 41°30' W 070°38'2 2.1
2014-Sep-17 09:33N 41°31' W 070°40'0 0.0
2014-Sep-17 08:29N 41°31' W 070°40'0 0.0
2014-Sep-17 07:24N 41°31' W 070°40'0 0.0
2014-Sep-17 06:33N 41°31' W 070°40'0 0.0
2014-Sep-17 05:33N 41°31' W 070°40'0 0.0
2014-Sep-17 04:31N 41°31' W 070°40'2 0.1
2014-Sep-16 10:31N 41°30' W 070°38'2 0.7
2014-Sep-16 07:09N 41°31' W 070°40'0 0.0
2014-Sep-16 03:29N 41°31' W 070°40'0 0.0
2014-Sep-16 00:27N 41°31' W 070°40'0 0.0
2014-Sep-15 23:31N 41°31' W 070°40'0 0.0
2014-Sep-15 22:26N 41°31' W 070°40'0 0.0
2014-Sep-15 21:22N 41°31' W 070°40'0 0.0
2014-Sep-15 20:33N 41°31' W 070°40'7 2.7
2014-Sep-15 18:05N 41°28' W 070°33'1 0.3
2014-Sep-15 15:33N 41°28' W 070°33'2 0.7
2014-Sep-15 13:07N 41°28' W 070°36'4 1.4
2014-Sep-15 10:18N 41°30' W 070°40'1 1.6
2014-Sep-15 09:33N 41°31' W 070°40'0 0.0
2014-Sep-15 08:30N 41°31' W 070°40'0 0.0
2014-Sep-15 07:33N 41°31' W 070°40'0 0.0
2014-Sep-15 06:30N 41°31' W 070°40'0 0.0
2014-Sep-15 05:32N 41°31' W 070°40'0 0.0
2014-Sep-15 04:33N 41°31' W 070°40'0 0.0
2014-Sep-15 03:33N 41°31' W 070°40'0 0.0
2014-Sep-15 02:25N 41°31' W 070°40'5 4.2
2014-Sep-15 01:11N 41°28' W 070°36'0 0.2
2014-Sep-14 23:11N 41°27' W 070°36'2 0.8
2014-Sep-14 20:33N 41°29' W 070°34'1 0.5
2014-Sep-14 18:04N 41°28' W 070°33'612.4
2014-Sep-14 17:33N 41°31' W 070°40'6 2.9
2014-Sep-14 15:29N 41°28' W 070°33'2 0.6
2014-Sep-14 13:04N 41°28' W 070°35'5 9.6
2014-Sep-14 12:33N 41°31' W 070°40'2 1.1
2014-Sep-14 10:31N 41°30' W 070°38'2 1.8
2014-Sep-14 09:11N 41°31' W 070°40'0 0.0
2014-Sep-14 08:33N 41°31' W 070°40'0 0.0
2014-Sep-14 07:32N 41°31' W 070°40'0 0.0
2014-Sep-14 06:33N 41°31' W 070°40'0 0.0
2014-Sep-13 21:30N 41°31' W 070°40'0 0.0
2014-Sep-13 20:33N 41°31' W 070°40'0 0.0
2014-Sep-13 19:33N 41°31' W 070°40'5 5.1
2014-Sep-13 18:32N 41°27' W 070°36'5 5.2
2014-Sep-13 17:33N 41°31' W 070°40'5 4.1
2014-Sep-13 16:25N 41°29' W 070°35'1 1.4
2014-Sep-13 15:33N 41°28' W 070°36'5 4.9
2014-Sep-13 14:31N 41°31' W 070°40'5 3.5
2014-Sep-13 13:04N 41°28' W 070°35'5 9.5
2014-Sep-13 12:33N 41°31' W 070°40'4 3.4
2014-Sep-13 11:26N 41°29' W 070°36'2 2.1
2014-Sep-13 10:24N 41°30' W 070°38'2 2.5
2014-Sep-13 09:31N 41°31' W 070°40'0 0.0
2014-Sep-13 08:32N 41°31' W 070°40'0 0.0
2014-Sep-13 07:30N 41°31' W 070°40'0 0.0
2014-Sep-13 06:33N 41°31' W 070°40'0 0.0
2014-Sep-13 05:33N 41°31' W 070°40'0 0.0
2014-Sep-13 04:33N 41°31' W 070°40'0 0.0
2014-Sep-13 03:32N 41°31' W 070°40'0 0.0
2014-Sep-13 02:33N 41°31' W 070°40'0 0.0
2014-Sep-13 01:33N 41°31' W 070°40'0 0.1
2014-Sep-13 00:33N 41°31' W 070°40'5 4.8
2014-Sep-12 23:29N 41°27' W 070°36'5 4.2
2014-Sep-12 22:16N 41°31' W 070°40'5 5.9
2014-Sep-12 21:28N 41°29' W 070°35'0 0.2
2014-Sep-12 20:33N 41°29' W 070°35'2 0.8
2014-Sep-12 18:06N 41°28' W 070°33'611.3
2014-Sep-12 17:33N 41°31' W 070°40'5 4.1
2014-Sep-12 16:23N 41°29' W 070°34'1 1.7
2014-Sep-12 15:31N 41°28' W 070°33'6 5.1
2014-Sep-12 14:16N 41°31' W 070°40'1 0.3
2014-Sep-12 12:32N 41°31' W 070°40'5 3.4
2014-Sep-12 11:11N 41°27' W 070°36'2 3.2
2014-Sep-12 10:33N 41°29' W 070°37'3 3.2
2014-Sep-12 09:30N 41°31' W 070°40'0 0.0
2014-Sep-12 08:33N 41°31' W 070°40'0 0.0
2014-Sep-12 07:32N 41°31' W 070°40'0 0.0
2014-Sep-12 06:32N 41°31' W 070°40'0 0.0
2014-Sep-12 05:31N 41°31' W 070°40'0 0.0
2014-Sep-12 04:33N 41°31' W 070°40'0 0.0
2014-Sep-12 03:18N 41°31' W 070°40'0 0.0
2014-Sep-12 02:33N 41°31' W 070°40'0 0.0
2014-Sep-11 20:20N 41°31' W 070°40'0 0.0
2014-Sep-11 19:33N 41°31' W 070°40'7 5.9
2014-Sep-11 18:28N 41°28' W 070°33'6 6.8
2014-Sep-11 17:33N 41°31' W 070°40'6 4.5
2014-Sep-11 16:16N 41°28' W 070°33'0 0.2
2014-Sep-11 15:34N 41°28' W 070°33'6 5.8
2014-Sep-11 14:32N 41°31' W 070°40'5 5.0
2014-Sep-11 13:30N 41°27' W 070°36'5 4.9
2014-Sep-11 12:34N 41°31' W 070°40'4 3.6
2014-Sep-11 11:28N 41°29' W 070°35'2 2.0
2014-Sep-11 10:34N 41°30' W 070°38'3 2.7
2014-Sep-11 09:34N 41°31' W 070°40'0 0.0
2014-Sep-11 08:34N 41°31' W 070°40'0 0.0
2014-Sep-11 07:33N 41°31' W 070°40'0 0.0
2014-Sep-11 06:34N 41°31' W 070°40'0 0.0
2014-Sep-11 05:31N 41°31' W 070°40'0 0.0
2014-Sep-11 04:32N 41°31' W 070°40'0 0.0
2014-Sep-11 03:34N 41°31' W 070°40'0 0.0
2014-Sep-11 02:33N 41°31' W 070°40'0 0.0
2014-Sep-11 01:34N 41°31' W 070°40'0 0.0
2014-Sep-11 00:33N 41°31' W 070°40'0 0.0
2014-Sep-10 23:31N 41°31' W 070°40'0 0.0
2014-Sep-10 22:33N 41°31' W 070°40'0 0.0
2014-Sep-10 21:34N 41°31' W 070°40'0 0.0
2014-Sep-10 20:33N 41°31' W 070°40'0 0.0
2014-Sep-10 19:34N 41°31' W 070°40'5 4.1
2014-Sep-10 18:18N 41°27' W 070°36'5 6.6
2014-Sep-10 17:32N 41°31' W 070°40'4 3.4
2014-Sep-10 16:29N 41°29' W 070°36'2 2.0
2014-Sep-10 15:33N 41°28' W 070°36'5 4.8
2014-Sep-10 14:30N 41°31' W 070°40'5 5.2
2014-Sep-10 13:31N 41°27' W 070°36'5 5.0
2014-Sep-10 12:33N 41°31' W 070°40'4 4.0
2014-Sep-10 11:33N 41°29' W 070°36'2 2.1
2014-Sep-10 10:30N 41°30' W 070°38'2 2.3
2014-Sep-10 09:33N 41°31' W 070°40'0 0.0
2014-Sep-10 08:33N 41°31' W 070°40'0 0.0
2014-Sep-10 07:33N 41°31' W 070°40'0 0.0
2014-Sep-10 06:32N 41°31' W 070°40'0 0.0
2014-Sep-10 05:34N 41°31' W 070°40'0 0.0
2014-Sep-10 04:33N 41°31' W 070°40'0 0.0
2014-Sep-10 03:33N 41°31' W 070°40'0 0.0
2014-Sep-10 02:34N 41°31' W 070°40'0 0.0
2014-Sep-10 01:34N 41°31' W 070°40'0 0.0
2014-Sep-10 00:34N 41°31' W 070°40'0 0.0
2014-Sep-09 23:33N 41°31' W 070°40'0 0.0
2014-Sep-09 22:33N 41°31' W 070°40'0 0.0
2014-Sep-09 21:33N 41°31' W 070°40'0 0.0
2014-Sep-09 20:31N 41°31' W 070°40'4 3.0
2014-Sep-09 19:07N 41°29' W 070°36'2 2.2
2014-Sep-09 18:14N 41°27' W 070°36'5 7.4
2014-Sep-09 17:32N 41°31' W 070°40'4 3.9
2014-Sep-09 16:27N 41°29' W 070°35'1 1.5
2014-Sep-09 15:33N 41°28' W 070°36'5 4.4
2014-Sep-09 14:24N 41°31' W 070°40'5 3.9
2014-Sep-09 13:03N 41°28' W 070°36'5 9.8
2014-Sep-09 12:33N 41°31' W 070°40'4 4.1
2014-Sep-09 11:29N 41°29' W 070°35'1 0.6
2014-Sep-09 10:33N 41°29' W 070°36'4 3.8
2014-Sep-09 09:33N 41°31' W 070°40'0 0.0
2014-Sep-09 08:32N 41°31' W 070°40'0 0.0
2014-Sep-09 07:33N 41°31' W 070°40'0 0.0
2014-Sep-09 06:33N 41°31' W 070°40'0 0.0
2014-Sep-09 05:33N 41°31' W 070°40'0 0.0
2014-Sep-09 04:33N 41°31' W 070°40'0 0.0
2014-Sep-09 03:32N 41°31' W 070°40'0 0.0
2014-Sep-09 02:33N 41°31' W 070°40'0 0.0
2014-Sep-09 01:33N 41°31' W 070°40'0 0.0
2014-Sep-09 00:33N 41°31' W 070°40'0 0.0
2014-Sep-08 23:31N 41°31' W 070°40'0 0.0
2014-Sep-08 22:32N 41°31' W 070°40'0 0.0
2014-Sep-08 21:20N 41°31' W 070°40'5 1.5
2014-Sep-08 18:08N 41°28' W 070°35'1 0.8
2014-Sep-08 16:29N 41°29' W 070°36'1 1.0
2014-Sep-08 15:33N 41°28' W 070°35'  
Track history (hours):
 
Tides and Currents Weather Stations Pressure Air Temp Water Temp Dewpoint Dewpoint Depression Visibility Wind Speed Wind Dir Waves Ship Positions

Katama

More information available from US FCC via Universal Licensing System and Coast Guard Vessel Documentation Center.

Last reported at 2014-Sep-18 14:32 UTC. Time now 2014-Sep-19 07:49 UTC.
Position N 41°31' W 070°40'.

Length 66 m; draft 3 m.

Type: Passenger vessel. MMSI: 367327330.

Date/timePositionNaut miles runAvg speedWind from/ knotsBaromVisibWave heightAir tempDewpointWater temp
2014-Sep-18 14:32N 41°31' W 070°40'5 5.0
2014-Sep-18 13:31N 41°27' W 070°36'5 5.2
2014-Sep-18 12:32N 41°31' W 070°40'4 4.4
2014-Sep-18 11:33N 41°29' W 070°35'1 1.2
2014-Sep-18 10:30N 41°30' W 070°37'3 3.2
2014-Sep-18 09:33N 41°31' W 070°40'0 0.0
2014-Sep-18 07:17N 41°31' W 070°40'0 0.0
2014-Sep-18 06:33N 41°31' W 070°40'0 0.0
2014-Sep-18 05:33N 41°31' W 070°40'0 0.0
2014-Sep-18 04:33N 41°31' W 070°40'0 0.0
2014-Sep-18 03:33N 41°31' W 070°40'5 0.4
2014-Sep-17 15:31N 41°29' W 070°35'5 4.3
2014-Sep-17 14:23N 41°31' W 070°40'0 0.2
2014-Sep-17 12:33N 41°31' W 070°40'5 3.9
2014-Sep-17 11:23N 41°28' W 070°35'3 3.3
2014-Sep-17 10:32N 41°30' W 070°38'2 2.1
2014-Sep-17 09:33N 41°31' W 070°40'0 0.0
2014-Sep-17 08:29N 41°31' W 070°40'0 0.0
2014-Sep-17 07:24N 41°31' W 070°40'0 0.0
2014-Sep-17 06:33N 41°31' W 070°40'0 0.0
2014-Sep-17 05:33N 41°31' W 070°40'0 0.0
2014-Sep-17 04:31N 41°31' W 070°40'2 0.1
2014-Sep-16 10:31N 41°30' W 070°38'2 0.7
2014-Sep-16 07:09N 41°31' W 070°40'0 0.0
2014-Sep-16 03:29N 41°31' W 070°40'0 0.0
2014-Sep-16 00:27N 41°31' W 070°40'0 0.0
2014-Sep-15 23:31N 41°31' W 070°40'0 0.0
2014-Sep-15 22:26N 41°31' W 070°40'0 0.0
2014-Sep-15 21:22N 41°31' W 070°40'0 0.0
2014-Sep-15 20:33N 41°31' W 070°40'7 2.7
2014-Sep-15 18:05N 41°28' W 070°33'1 0.3
2014-Sep-15 15:33N 41°28' W 070°33'2 0.7
2014-Sep-15 13:07N 41°28' W 070°36'4 1.4
2014-Sep-15 10:18N 41°30' W 070°40'1 1.6
2014-Sep-15 09:33N 41°31' W 070°40'0 0.0
2014-Sep-15 08:30N 41°31' W 070°40'0 0.0
2014-Sep-15 07:33N 41°31' W 070°40'0 0.0
2014-Sep-15 06:30N 41°31' W 070°40'0 0.0
2014-Sep-15 05:32N 41°31' W 070°40'0 0.0
2014-Sep-15 04:33N 41°31' W 070°40'0 0.0
2014-Sep-15 03:33N 41°31' W 070°40'0 0.0
2014-Sep-15 02:25N 41°31' W 070°40'5 4.2
2014-Sep-15 01:11N 41°28' W 070°36'0 0.2
2014-Sep-14 23:11N 41°27' W 070°36'2 0.8
2014-Sep-14 20:33N 41°29' W 070°34'1 0.5
2014-Sep-14 18:04N 41°28' W 070°33'612.4
2014-Sep-14 17:33N 41°31' W 070°40'6 2.9
2014-Sep-14 15:29N 41°28' W 070°33'2 0.6
2014-Sep-14 13:04N 41°28' W 070°35'5 9.6
2014-Sep-14 12:33N 41°31' W 070°40'2 1.1
2014-Sep-14 10:31N 41°30' W 070°38'2 1.8
2014-Sep-14 09:11N 41°31' W 070°40'0 0.0
2014-Sep-14 08:33N 41°31' W 070°40'0 0.0
2014-Sep-14 07:32N 41°31' W 070°40'0 0.0
2014-Sep-14 06:33N 41°31' W 070°40'0 0.0
2014-Sep-13 21:30N 41°31' W 070°40'0 0.0
2014-Sep-13 20:33N 41°31' W 070°40'0 0.0
2014-Sep-13 19:33N 41°31' W 070°40'5 5.1
2014-Sep-13 18:32N 41°27' W 070°36'5 5.2
2014-Sep-13 17:33N 41°31' W 070°40'5 4.1
2014-Sep-13 16:25N 41°29' W 070°35'1 1.4
2014-Sep-13 15:33N 41°28' W 070°36'5 4.9
2014-Sep-13 14:31N 41°31' W 070°40'5 3.5
2014-Sep-13 13:04N 41°28' W 070°35'5 9.5
2014-Sep-13 12:33N 41°31' W 070°40'4 3.4
2014-Sep-13 11:26N 41°29' W 070°36'2 2.1
2014-Sep-13 10:24N 41°30' W 070°38'2 2.5
2014-Sep-13 09:31N 41°31' W 070°40'0 0.0
2014-Sep-13 08:32N 41°31' W 070°40'0 0.0
2014-Sep-13 07:30N 41°31' W 070°40'0 0.0
2014-Sep-13 06:33N 41°31' W 070°40'0 0.0
2014-Sep-13 05:33N 41°31' W 070°40'0 0.0
2014-Sep-13 04:33N 41°31' W 070°40'0 0.0
2014-Sep-13 03:32N 41°31' W 070°40'0 0.0
2014-Sep-13 02:33N 41°31' W 070°40'0 0.0
2014-Sep-13 01:33N 41°31' W 070°40'0 0.1
2014-Sep-13 00:33N 41°31' W 070°40'5 4.8
2014-Sep-12 23:29N 41°27' W 070°36'5 4.2
2014-Sep-12 22:16N 41°31' W 070°40'5 5.9
2014-Sep-12 21:28N 41°29' W 070°35'0 0.2
2014-Sep-12 20:33N 41°29' W 070°35'2 0.8
2014-Sep-12 18:06N 41°28' W 070°33'611.3
2014-Sep-12 17:33N 41°31' W 070°40'5 4.1
2014-Sep-12 16:23N 41°29' W 070°34'1 1.7
2014-Sep-12 15:31N 41°28' W 070°33'6 5.1
2014-Sep-12 14:16N 41°31' W 070°40'1 0.3
2014-Sep-12 12:32N 41°31' W 070°40'5 3.4
2014-Sep-12 11:11N 41°27' W 070°36'2 3.2
2014-Sep-12 10:33N 41°29' W 070°37'3 3.2
2014-Sep-12 09:30N 41°31' W 070°40'0 0.0
2014-Sep-12 08:33N 41°31' W 070°40'0 0.0
2014-Sep-12 07:32N 41°31' W 070°40'0 0.0
2014-Sep-12 06:32N 41°31' W 070°40'0 0.0
2014-Sep-12 05:31N 41°31' W 070°40'0 0.0
2014-Sep-12 04:33N 41°31' W 070°40'0 0.0
2014-Sep-12 03:18N 41°31' W 070°40'0 0.0
2014-Sep-12 02:33N 41°31' W 070°40'0 0.0
2014-Sep-11 20:20N 41°31' W 070°40'0 0.0
2014-Sep-11 19:33N 41°31' W 070°40'7 5.9
2014-Sep-11 18:28N 41°28' W 070°33'6 6.8
2014-Sep-11 17:33N 41°31' W 070°40'6 4.5
2014-Sep-11 16:16N 41°28' W 070°33'0 0.2
2014-Sep-11 15:34N 41°28' W 070°33'6 5.8
2014-Sep-11 14:32N 41°31' W 070°40'5 5.0
2014-Sep-11 13:30N 41°27' W 070°36'5 4.9
2014-Sep-11 12:34N 41°31' W 070°40'4 3.6
2014-Sep-11 11:28N 41°29' W 070°35'2 2.0
2014-Sep-11 10:34N 41°30' W 070°38'3 2.7
2014-Sep-11 09:34N 41°31' W 070°40'0 0.0
2014-Sep-11 08:34N 41°31' W 070°40'0 0.0
2014-Sep-11 07:33N 41°31' W 070°40'0 0.0
2014-Sep-11 06:34N 41°31' W 070°40'0 0.0
2014-Sep-11 05:31N 41°31' W 070°40'0 0.0
2014-Sep-11 04:32N 41°31' W 070°40'0 0.0
2014-Sep-11 03:34N 41°31' W 070°40'0 0.0
2014-Sep-11 02:33N 41°31' W 070°40'0 0.0
2014-Sep-11 01:34N 41°31' W 070°40'0 0.0
2014-Sep-11 00:33N 41°31' W 070°40'0 0.0
2014-Sep-10 23:31N 41°31' W 070°40'0 0.0
2014-Sep-10 22:33N 41°31' W 070°40'0 0.0
2014-Sep-10 21:34N 41°31' W 070°40'0 0.0
2014-Sep-10 20:33N 41°31' W 070°40'0 0.0
2014-Sep-10 19:34N 41°31' W 070°40'5 4.1
2014-Sep-10 18:18N 41°27' W 070°36'5 6.6
2014-Sep-10 17:32N 41°31' W 070°40'4 3.4
2014-Sep-10 16:29N 41°29' W 070°36'2 2.0
2014-Sep-10 15:33N 41°28' W 070°36'5 4.8
2014-Sep-10 14:30N 41°31' W 070°40'5 5.2
2014-Sep-10 13:31N 41°27' W 070°36'5 5.0
2014-Sep-10 12:33N 41°31' W 070°40'4 4.0
2014-Sep-10 11:33N 41°29' W 070°36'2 2.1
2014-Sep-10 10:30N 41°30' W 070°38'2 2.3
2014-Sep-10 09:33N 41°31' W 070°40'0 0.0
2014-Sep-10 08:33N 41°31' W 070°40'0 0.0
2014-Sep-10 07:33N 41°31' W 070°40'0 0.0
2014-Sep-10 06:32N 41°31' W 070°40'0 0.0
2014-Sep-10 05:34N 41°31' W 070°40'0 0.0
2014-Sep-10 04:33N 41°31' W 070°40'0 0.0
2014-Sep-10 03:33N 41°31' W 070°40'0 0.0
2014-Sep-10 02:34N 41°31' W 070°40'0 0.0
2014-Sep-10 01:34N 41°31' W 070°40'0 0.0
2014-Sep-10 00:34N 41°31' W 070°40'0 0.0
2014-Sep-09 23:33N 41°31' W 070°40'0 0.0
2014-Sep-09 22:33N 41°31' W 070°40'0 0.0
2014-Sep-09 21:33N 41°31' W 070°40'0 0.0
2014-Sep-09 20:31N 41°31' W 070°40'4 3.0
2014-Sep-09 19:07N 41°29' W 070°36'2 2.2
2014-Sep-09 18:14N 41°27' W 070°36'5 7.4
2014-Sep-09 17:32N 41°31' W 070°40'4 3.9
2014-Sep-09 16:27N 41°29' W 070°35'1 1.5
2014-Sep-09 15:33N 41°28' W 070°36'5 4.4
2014-Sep-09 14:24N 41°31' W 070°40'5 3.9
2014-Sep-09 13:03N 41°28' W 070°36'5 9.8
2014-Sep-09 12:33N 41°31' W 070°40'4 4.1
2014-Sep-09 11:29N 41°29' W 070°35'1 0.6
2014-Sep-09 10:33N 41°29' W 070°36'4 3.8
2014-Sep-09 09:33N 41°31' W 070°40'0 0.0
2014-Sep-09 08:32N 41°31' W 070°40'0 0.0
2014-Sep-09 07:33N 41°31' W 070°40'0 0.0
2014-Sep-09 06:33N 41°31' W 070°40'0 0.0
2014-Sep-09 05:33N 41°31' W 070°40'0 0.0
2014-Sep-09 04:33N 41°31' W 070°40'0 0.0
2014-Sep-09 03:32N 41°31' W 070°40'0 0.0
2014-Sep-09 02:33N 41°31' W 070°40'0 0.0
2014-Sep-09 01:33N 41°31' W 070°40'0 0.0
2014-Sep-09 00:33N 41°31' W 070°40'0 0.0
2014-Sep-08 23:31N 41°31' W 070°40'0 0.0
2014-Sep-08 22:32N 41°31' W 070°40'0 0.0
2014-Sep-08 21:20N 41°31' W 070°40'5 1.5
2014-Sep-08 18:08N 41°28' W 070°35'1 0.8
2014-Sep-08 16:29N 41°29' W 070°36'1 1.0
2014-Sep-08 15:33N 41°28' W 070°35'  

Dump ship's entire track history